Time;durP1;ratioP1;P1;durP2;ratioP2;P2;SDS_P1;SDS_P2;PMS_P1;PMS_P2;Temp;Humidity;BMP_temperature;BMP_pressure;BME280_temperature;BME280_humidity;BME280_pressure;Samples;Min_cycle;Max_cycle;Signal;HPM_P1;HPM_P2
2023/08/05 00:00:29;;;;;;;;;;;;;;;;;;4945649;28;19938;-77
2023/08/05 00:03:15;;;;;;;;;;;;;;;;;;4945724;28;19919;-78
2023/08/05 00:06:02;;;;;;;;;;;;;;;;;;4942155;28;19922;-76
2023/08/05 00:08:48;;;;;;;;;;;;;;;;;;4942746;28;19922;-76
2023/08/05 00:11:35;;;;;;;;;;;;;;;;;;4942748;28;19938;-78
2023/08/05 00:14:21;;;;;;;;;;;;;;;;;;4941131;28;20390;-75
2023/08/05 00:17:08;;;;;;;;;;;;;;;;;;4943645;28;19925;-78
2023/08/05 00:19:54;;;;;;;;;;;;;;;;;;4942846;28;19927;-77
2023/08/05 00:22:41;;;;;;;;;;;;;;;;;;4940843;28;19930;-77
2023/08/05 00:25:28;;;;;;;;;;;;;;;;;;4942055;28;20587;-78
2023/08/05 00:28:15;;;;;;;;;;;;;;;;;;4943424;28;19919;-78
2023/08/05 00:31:01;;;;;;;;;;;;;;;;;;4941806;28;19953;-76
2023/08/05 00:33:48;;;;;;;;;;;;;;;;;;4940295;28;19933;-75
2023/08/05 00:36:34;;;;;;;;;;;;;;;;;;4942271;28;19918;-76
2023/08/05 00:39:21;;;;;;;;;;;;;;;;;;4940359;28;19934;-80
2023/08/05 00:42:07;;;;;;;;;;;;;;;;;;4941987;28;19941;-76
2023/08/05 00:44:54;;;;;;;;;;;;;;;;;;4940895;28;19929;-76
2023/08/05 00:47:40;;;;;;;;;;;;;;;;;;4942675;28;19918;-75
2023/08/05 00:50:27;;;;;;;;;;;;;;;;;;4948192;28;19918;-77
2023/08/05 00:53:14;;;;;;;;;;;;;;;;;;4958235;28;19922;-76
2023/08/05 00:56:00;;;;;;;;;;;;;;;;;;4960289;28;19918;-76
2023/08/05 00:58:47;;;;;;;;;;;;;;;;;;4958788;28;19956;-77
2023/08/05 01:01:33;;;;;;;;;;;;;;;;;;4959540;28;19932;-77
2023/08/05 01:04:20;;;;;;;;;;;;;;;;;;4962530;28;19942;-77
2023/08/05 01:07:06;;;;;;;;;;;;;;;;;;4960461;28;19926;-76
2023/08/05 01:09:53;;;;;;;;;;;;;;;;;;4957542;28;19944;-76
2023/08/05 01:12:39;;;;;;;;;;;;;;;;;;4959041;28;19922;-76
2023/08/05 01:15:26;;;;;;;;;;;;;;;;;;4960500;28;19914;-77
2023/08/05 01:18:12;;;;;;;;;;;;;;;;;;4948088;28;19926;-76
2023/08/05 01:20:59;;;;;;;;;;;;;;;;;;4954500;28;20440;-76
2023/08/05 01:23:45;;;;;;;;;;;;;;;;;;4941645;28;19925;-75
2023/08/05 01:26:32;;;;;;;;;;;;;;;;;;4940698;28;19922;-76
2023/08/05 01:29:18;;;;;;;;;;;;;;;;;;4940923;28;20487;-75
2023/08/05 01:32:05;;;;;;;;;;;;;;;;;;4939254;28;19926;-75
2023/08/05 01:34:51;;;;;;;;;;;;;;;;;;4951582;28;19937;-76
2023/08/05 01:37:37;;;;;;;;;;;;;;;;;;4947501;28;19926;-76
2023/08/05 01:40:28;;;;;;;;;;;;;;;;;;4953886;28;19934;-75
2023/08/05 01:43:14;;;;;;;;;;;;;;;;;;4947110;28;19925;-75
2023/08/05 01:46:01;;;;;;;;;;;;;;;;;;4951919;28;20314;-74
2023/08/05 01:48:47;;;;;;;;;;;;;;;;;;4946849;28;19929;-75
2023/08/05 01:51:34;;;;;;;;;;;;;;;;;;4949140;28;20314;-77
2023/08/05 01:54:20;;;;;;;;;;;;;;;;;;4940349;28;19919;-76
2023/08/05 01:57:07;;;;;;;;;;;;;;;;;;4941113;28;19935;-78
2023/08/05 01:59:53;;;;;;;;;;;;;;;;;;4952607;28;19937;-78
2023/08/05 02:02:39;;;;;;;;;;;;;;;;;;4960430;28;20555;-79
2023/08/05 02:05:26;;;;;;;;;;;;;;;;;;4961418;28;19918;-79
2023/08/05 02:08:13;;;;;;;;;;;;;;;;;;4948042;28;19925;-79
2023/08/05 02:10:59;;;;;;;;;;;;;;;;;;4946223;28;20377;-78
2023/08/05 02:13:46;;;;;;;;;;;;;;;;;;4942202;28;19919;-78
2023/08/05 02:16:33;;;;;;;;;;;;;;;;;;4942189;28;20262;-78
2023/08/05 02:19:19;;;;;;;;;;;;;;;;;;4939076;28;20409;-78
2023/08/05 02:22:05;;;;;;;;;;;;;;;;;;4945460;28;19924;-78
2023/08/05 02:24:52;;;;;;;;;;;;;;;;;;4944150;28;19950;-78
2023/08/05 02:27:38;;;;;;;;;;;;;;;;;;4943105;28;19929;-78
2023/08/05 02:30:25;;;;;;;;;;;;;;;;;;4944708;28;20445;-77
2023/08/05 02:33:11;;;;;;;;;;;;;;;;;;4945354;28;20473;-79
2023/08/05 02:35:58;;;;;;;;;;;;;;;;;;4945543;28;19918;-77
2023/08/05 02:38:44;;;;;;;;;;;;;;;;;;4963252;28;20459;-78
2023/08/05 02:41:31;;;;;;;;;;;;;;;;;;4946753;28;19928;-77
2023/08/05 02:44:17;;;;;;;;;;;;;;;;;;4964195;28;19918;-78
2023/08/05 02:47:04;;;;;;;;;;;;;;;;;;4955831;28;19922;-77
2023/08/05 02:49:50;;;;;;;;;;;;;;;;;;4951369;28;20604;-77
2023/08/05 02:52:37;;;;;;;;;;;;;;;;;;4954482;28;19922;-78
2023/08/05 02:55:24;;;;;;;;;;;;;;;;;;4946603;28;19940;-76
2023/08/05 02:58:10;;;;;;;;;;;;;;;;;;4948781;28;19930;-77
2023/08/05 03:00:57;;;;;;;;;;;;;;;;;;4959171;28;20397;-77
2023/08/05 03:03:43;;;;;;;;;;;;;;;;;;4962529;28;19918;-77
2023/08/05 03:06:29;;;;;;;;;;;;;;;;;;4961999;28;19922;-76
2023/08/05 03:09:16;;;;;;;;;;;;;;;;;;4963086;28;20376;-77
2023/08/05 03:12:07;;;;;;;;;;;;;;;;;;4961468;28;19926;-77
2023/08/05 03:14:53;;;;;;;;;;;;;;;;;;4954373;28;19925;-76
2023/08/05 03:17:39;;;;;;;;;;;;;;;;;;4942639;28;19930;-77
2023/08/05 03:20:26;;;;;;;;;;;;;;;;;;4943317;28;19922;-76
2023/08/05 03:23:12;;;;;;;;;;;;;;;;;;4942881;28;19923;-76
2023/08/05 03:25:59;;;;;;;;;;;;;;;;;;4941178;28;19923;-77
2023/08/05 03:28:45;;;;;;;;;;;;;;;;;;4947451;28;20475;-77
2023/08/05 03:31:32;;;;;;;;;;;;;;;;;;4940174;28;19941;-78
2023/08/05 03:34:18;;;;;;;;;;;;;;;;;;4941554;28;19918;-77
2023/08/05 03:37:05;;;;;;;;;;;;;;;;;;4940216;28;19923;-78
2023/08/05 03:39:51;;;;;;;;;;;;;;;;;;4947131;28;20409;-76
2023/08/05 03:42:38;;;;;;;;;;;;;;;;;;4941206;28;20551;-76
2023/08/05 03:45:24;;;;;;;;;;;;;;;;;;4942787;28;19933;-77
2023/08/05 03:48:11;;;;;;;;;;;;;;;;;;4943281;28;19925;-77
2023/08/05 03:50:57;;;;;;;;;;;;;;;;;;4942502;28;19941;-78
2023/08/05 03:53:44;;;;;;;;;;;;;;;;;;4940284;28;20370;-76
2023/08/05 03:56:31;;;;;;;;;;;;;;;;;;4951084;28;19923;-77
2023/08/05 03:59:17;;;;;;;;;;;;;;;;;;4961114;28;19930;-77
2023/08/05 04:02:04;;;;;;;;;;;;;;;;;;4959400;28;19950;-77
2023/08/05 04:04:51;;;;;;;;;;;;;;;;;;4957175;28;19923;-77
2023/08/05 04:07:37;;;;;;;;;;;;;;;;;;4941692;28;19929;-77
2023/08/05 04:10:24;;;;;;;;;;;;;;;;;;4959051;28;19918;-77
2023/08/05 04:13:11;;;;;;;;;;;;;;;;;;4952547;28;19922;-76
2023/08/05 04:15:59;;;;;;;;;;;;;;;;;;4953822;28;20302;-76
2023/08/05 04:18:48;;;;;;;;;;;;;;;;;;4960765;28;19933;-75
2023/08/05 04:21:40;;;;;;;;;;;;;;;;;;4955836;28;20293;-75
2023/08/05 04:24:28;;;;;;;;;;;;;;;;;;4960594;28;19929;-76
2023/08/05 04:27:16;;;;;;;;;;;;;;;;;;4950511;28;19926;-76
2023/08/05 04:30:02;;;;;;;;;;;;;;;;;;4941697;28;20457;-77
2023/08/05 04:32:49;;;;;;;;;;;;;;;;;;4938116;28;20311;-78
2023/08/05 04:35:35;;;;;;;;;;;;;;;;;;4942852;28;19952;-78
2023/08/05 04:38:22;;;;;;;;;;;;;;;;;;4940840;28;20385;-78
2023/08/05 04:41:08;;;;;;;;;;;;;;;;;;4939584;28;19930;-77
2023/08/05 04:43:56;;;;;;;;;;;;;;;;;;4943730;28;19922;-77
2023/08/05 04:46:43;;;;;;;;;;;;;;;;;;4946848;28;19918;-77
2023/08/05 04:49:29;;;;;;;;;;;;;;;;;;4943672;28;19918;-78
2023/08/05 04:52:16;;;;;;;;;;;;;;;;;;4941221;28;19929;-76
2023/08/05 04:55:02;;;;;;;;;;;;;;;;;;4946698;28;19930;-77
2023/08/05 04:57:49;;;;;;;;;;;;;;;;;;4942994;28;19929;-77
2023/08/05 05:00:35;;;;;;;;;;;;;;;;;;4960866;28;19925;-76
2023/08/05 05:03:22;;;;;;;;;;;;;;;;;;4963800;28;19922;-77
2023/08/05 05:06:08;;;;;;;;;;;;;;;;;;4963970;28;19926;-76
2023/08/05 05:08:55;;;;;;;;;;;;;;;;;;4962523;28;19926;-76
2023/08/05 05:11:41;;;;;;;;;;;;;;;;;;4958867;28;19933;-77
2023/08/05 05:14:28;;;;;;;;;;;;;;;;;;4962467;28;20298;-77
2023/08/05 05:17:15;;;;;;;;;;;;;;;;;;4963064;28;19922;-76
2023/08/05 05:20:02;;;;;;;;;;;;;;;;;;4945987;28;19930;-77
2023/08/05 05:22:49;;;;;;;;;;;;;;;;;;4943563;28;19929;-77
2023/08/05 05:25:35;;;;;;;;;;;;;;;;;;4957393;28;19922;-77
2023/08/05 05:28:22;;;;;;;;;;;;;;;;;;4958158;28;19922;-78
2023/08/05 05:31:08;;;;;;;;;;;;;;;;;;4934746;28;19922;-76
2023/08/05 05:33:55;;;;;;;;;;;;;;;;;;4941309;28;19946;-76
2023/08/05 05:36:41;;;;;;;;;;;;;;;;;;4961097;28;19921;-76
2023/08/05 05:39:28;;;;;;;;;;;;;;;;;;4945232;28;20306;-77
2023/08/05 05:42:15;;;;;;;;;;;;;;;;;;4938301;28;19923;-76
2023/08/05 05:45:01;;;;;;;;;;;;;;;;;;4940497;28;19950;-76
2023/08/05 05:47:48;;;;;;;;;;;;;;;;;;4940202;28;19929;-76
2023/08/05 05:50:35;;;;;;;;;;;;;;;;;;4954472;28;19933;-76
2023/08/05 05:53:21;;;;;;;;;;;;;;;;;;4949669;28;19922;-75
2023/08/05 05:56:08;;;;;;;;;;;;;;;;;;4950467;28;20393;-76
2023/08/05 05:58:54;;;;;;;;;;;;;;;;;;4963684;28;19934;-77
2023/08/05 06:01:41;;;;;;;;;;;;;;;;;;4929742;28;20416;-77
2023/08/05 06:04:28;;;;;;;;;;;;;;;;;;4958055;28;19922;-78
2023/08/05 06:07:15;;;;;;;;;;;;;;;;;;4945695;28;19922;-77
2023/08/05 06:10:01;;;;;;;;;;;;;;;;;;4947132;28;19922;-78
2023/08/05 06:12:48;;;;;;;;;;;;;;;;;;4945022;28;20380;-78
2023/08/05 06:15:34;;;;;;;;;;;;;;;;;;4943361;28;19926;-77
2023/08/05 06:18:21;;;;;;;;;;;;;;;;;;4950971;28;19927;-78
2023/08/05 06:21:07;;;;;;;;;;;;;;;;;;4946945;28;20314;-75
2023/08/05 06:23:54;;;;;;;;;;;;;;;;;;4948727;28;19922;-76
2023/08/05 06:26:40;;;;;;;;;;;;;;;;;;4948424;28;19925;-76
2023/08/05 06:29:27;;;;;;;;;;;;;;;;;;4945544;28;20387;-76
2023/08/05 06:32:13;;;;;;;;;;;;;;;;;;4964659;28;19932;-77
2023/08/05 06:35:00;;;;;;;;;;;;;;;;;;4958896;28;19929;-77
2023/08/05 06:37:46;;;;;;;;;;;;;;;;;;4947044;28;19930;-77
2023/08/05 06:40:33;;;;;;;;;;;;;;;;;;4958738;28;19926;-77
2023/08/05 06:43:19;;;;;;;;;;;;;;;;;;4964352;28;19933;-77
2023/08/05 06:46:06;;;;;;;;;;;;;;;;;;4963900;28;19919;-76
2023/08/05 06:48:52;;;;;;;;;;;;;;;;;;4969601;28;20216;-79
2023/08/05 06:51:39;;;;;;;;;;;;;;;;;;4965790;28;19957;-77
2023/08/05 06:54:26;;;;;;;;;;;;;;;;;;4962221;28;20383;-75
2023/08/05 06:57:12;;;;;;;;;;;;;;;;;;4956351;28;19926;-76
2023/08/05 06:59:59;;;;;;;;;;;;;;;;;;4965120;28;19942;-76
2023/08/05 07:02:45;;;;;;;;;;;;;;;;;;4959545;28;19922;-76
2023/08/05 07:05:32;;;;;;;;;;;;;;;;;;4955664;28;19933;-76
2023/08/05 07:08:22;;;;;;;;;;;;;;;;;;4949984;28;19918;-77
2023/08/05 07:11:08;;;;;;;;;;;;;;;;;;4965618;28;19922;-76
2023/08/05 07:13:55;;;;;;;;;;;;;;;;;;4954828;28;19926;-79
2023/08/05 07:16:41;;;;;;;;;;;;;;;;;;4968270;28;20890;-78
2023/08/05 07:19:28;;;;;;;;;;;;;;;;;;4963277;28;19938;-79
2023/08/05 07:22:14;;;;;;;;;;;;;;;;;;4973613;28;19921;-79
2023/08/05 07:25:01;;;;;;;;;;;;;;;;;;4958471;28;19921;-80
2023/08/05 07:27:47;;;;;;;;;;;;;;;;;;4972176;28;19936;-75
2023/08/05 07:30:34;;;;;;;;;;;;;;;;;;4968797;28;19926;-76
2023/08/05 07:33:22;;;;;;;;;;;;;;;;;;4967018;28;19926;-77
2023/08/05 07:36:09;;;;;;;;;;;;;;;;;;4958831;28;20493;-78
2023/08/05 07:38:55;;;;;;;;;;;;;;;;;;4968597;28;19945;-79
2023/08/05 07:41:42;;;;;;;;;;;;;;;;;;4966310;28;19926;-79
2023/08/05 07:44:31;;;;;;;;;;;;;;;;;;4970817;28;19938;-80
2023/08/05 07:47:17;;;;;;;;;;;;;;;;;;4951572;28;20430;-79
2023/08/05 07:50:06;;;;;;;;;;;;;;;;;;4967991;28;19922;-79
2023/08/05 07:52:53;;;;;;;;;;;;;;;;;;4956722;28;19964;-76
2023/08/05 07:55:42;;;;;;;;;;;;;;;;;;4941493;28;20298;-76
2023/08/05 07:58:29;;;;;;;;;;;;;;;;;;4939644;28;19930;-78
2023/08/05 08:01:22;;;;;;;;;;;;;;;;;;4966793;28;19922;-76
2023/08/05 08:04:08;;;;;;;;;;;;;;;;;;4953620;28;19918;-76
2023/08/05 08:06:55;;;;;;;;;;;;;;;;;;4967562;28;19930;-77
2023/08/05 08:09:41;;;;;;;;;;;;;;;;;;4965490;28;20579;-78
2023/08/05 08:12:28;;;;;;;;;;;;;;;;;;4963431;28;20683;-79
2023/08/05 08:15:14;;;;;;;;;;;;;;;;;;4967413;28;19929;-79
2023/08/05 08:18:01;;;;;;;;;;;;;;;;;;4962216;28;19949;-79
2023/08/05 08:20:47;;;;;;;;;;;;;;;;;;4965281;28;19930;-78
2023/08/05 08:23:34;;;;;;;;;;;;;;;;;;4963083;28;20510;-79
2023/08/05 08:26:20;;;;;;;;;;;;;;;;;;4963805;28;19928;-80
2023/08/05 08:29:07;;;;;;;;;;;;;;;;;;4966950;28;20061;-79
2023/08/05 08:31:53;;;;;;;;;;;;;;;;;;4968925;28;19919;-77
2023/08/05 08:34:40;;;;;;;;;;;;;;;;;;4972596;28;19928;-78
2023/08/05 08:37:26;;;;;;;;;;;;;;;;;;4962910;28;19922;-78
2023/08/05 08:40:13;;;;;;;;;;;;;;;;;;4970691;28;19934;-77
2023/08/05 08:42:59;;;;;;;;;;;;;;;;;;4940103;28;19922;-74
2023/08/05 08:45:46;;;;;;;;;;;;;;;;;;4956368;28;20577;-77
2023/08/05 08:48:32;;;;;;;;;;;;;;;;;;4969862;28;19922;-76
2023/08/05 08:51:19;;;;;;;;;;;;;;;;;;4965017;28;19922;-78
2023/08/05 08:54:05;;;;;;;;;;;;;;;;;;4962098;28;19926;-77
2023/08/05 08:56:52;;;;;;;;;;;;;;;;;;4968845;28;19944;-76
2023/08/05 08:59:38;;;;;;;;;;;;;;;;;;4968988;28;19929;-79
2023/08/05 09:02:25;;;;;;;;;;;;;;;;;;4970355;28;19930;-79
2023/08/05 09:05:11;;;;;;;;;;;;;;;;;;4966181;28;19922;-79
2023/08/05 09:08:00;;;;;;;;;;;;;;;;;;4965362;28;24674;-78
2023/08/05 09:10:46;;;;;;;;;;;;;;;;;;4972549;28;19922;-79
2023/08/05 09:13:32;;;;;;;;;;;;;;;;;;4963308;28;20015;-79
2023/08/05 09:16:19;;;;;;;;;;;;;;;;;;4967611;28;19922;-77
2023/08/05 09:19:05;;;;;;;;;;;;;;;;;;4963407;28;19930;-75
2023/08/05 09:21:52;;;;;;;;;;;;;;;;;;4964842;28;19928;-79
2023/08/05 09:24:38;;;;;;;;;;;;;;;;;;4969592;28;20388;-78
2023/08/05 09:27:25;;;;;;;;;;;;;;;;;;4967179;28;19933;-77
2023/08/05 09:30:11;;;;;;;;;;;;;;;;;;4967633;28;19922;-76
2023/08/05 09:32:58;;;;;;;;;;;;;;;;;;4966025;28;19981;-74
2023/08/05 09:35:47;;;;;;;;;;;;;;;;;;4968760;28;19933;-75
2023/08/05 09:38:34;;;;;;;;;;;;;;;;;;4961654;28;20457;-75
2023/08/05 09:41:20;;;;;;;;;;;;;;;;;;4963101;28;20297;-76
2023/08/05 09:44:08;;;;;;;;;;;;;;;;;;4968547;28;19933;-76
2023/08/05 09:46:56;;;;;;;;;;;;;;;;;;4967559;28;19929;-75
2023/08/05 09:49:42;;;;;;;;;;;;;;;;;;4954174;28;19918;-76
2023/08/05 09:52:29;;;;;;;;;;;;;;;;;;4963021;28;19922;-77
2023/08/05 09:55:15;;;;;;;;;;;;;;;;;;4956943;28;19927;-76
2023/08/05 09:58:07;;;;;;;;;;;;;;;;;;4947511;28;19919;-76
2023/08/05 10:00:53;;;;;;;;;;;;;;;;;;4963688;28;19933;-75
2023/08/05 10:03:39;;;;;;;;;;;;;;;;;;4968921;28;19948;-75
2023/08/05 10:06:26;;;;;;;;;;;;;;;;;;4965797;28;19926;-74
2023/08/05 10:09:12;;;;;;;;;;;;;;;;;;4966885;28;19918;-76
2023/08/05 10:11:59;;;;;;;;;;;;;;;;;;4960078;28;20498;-78
2023/08/05 10:14:45;;;;;;;;;;;;;;;;;;4944317;28;19930;-80
2023/08/05 10:17:32;;;;;;;;;;;;;;;;;;4945558;28;19929;-78
2023/08/05 10:20:18;;;;;;;;;;;;;;;;;;4960534;28;19930;-76
2023/08/05 10:23:05;;;;;;;;;;;;;;;;;;4947786;28;19922;-77
2023/08/05 10:25:52;;;;;;;;;;;;;;;;;;4953842;28;19925;-77
2023/08/05 10:28:39;;;;;;;;;;;;;;;;;;4958950;28;19922;-79
2023/08/05 10:31:26;;;;;;;;;;;;;;;;;;4971415;28;19925;-78
2023/08/05 10:34:12;;;;;;;;;;;;;;;;;;4969458;28;19937;-79
2023/08/05 10:36:59;;;;;;;;;;;;;;;;;;4948717;28;19934;-78
2023/08/05 10:39:45;;;;;;;;;;;;;;;;;;4959004;28;20467;-79
2023/08/05 10:42:34;;;;;;;;;;;;;;;;;;4957689;28;19933;-79
2023/08/05 10:45:20;;;;;;;;;;;;;;;;;;4955863;28;19929;-79
2023/08/05 10:48:08;;;;;;;;;;;;;;;;;;4940790;28;19915;-79
2023/08/05 10:50:54;;;;;;;;;;;;;;;;;;4938043;28;19919;-80
2023/08/05 10:53:41;;;;;;;;;;;;;;;;;;4945887;28;20290;-80
2023/08/05 10:56:27;;;;;;;;;;;;;;;;;;4968185;28;19924;-79
2023/08/05 10:59:14;;;;;;;;;;;;;;;;;;4971708;28;19937;-79
2023/08/05 11:02:02;;;;;;;;;;;;;;;;;;4958173;28;19930;-80
2023/08/05 11:04:48;;;;;;;;;;;;;;;;;;4944606;28;19933;-79
2023/08/05 11:07:35;;;;;;;;;;;;;;;;;;4961060;28;19970;-80
2023/08/05 11:10:21;;;;;;;;;;;;;;;;;;4949757;28;20386;-78
2023/08/05 11:13:08;;;;;;;;;;;;;;;;;;4947621;28;19927;-78
2023/08/05 11:15:54;;;;;;;;;;;;;;;;;;4948245;28;19922;-78
2023/08/05 11:18:41;;;;;;;;;;;;;;;;;;4949185;28;19936;-80
2023/08/05 11:21:27;;;;;;;;;;;;;;;;;;4957867;28;19941;-79
2023/08/05 11:24:14;;;;;;;;;;;;;;;;;;4971572;28;19929;-80
2023/08/05 11:27:00;;;;;;;;;;;;;;;;;;4966303;28;19932;-79
2023/08/05 11:29:46;;;;;;;;;;;;;;;;;;4951233;28;19926;-78
2023/08/05 11:32:33;;;;;;;;;;;;;;;;;;4967271;28;19925;-79
2023/08/05 11:35:19;;;;;;;;;;;;;;;;;;4962171;28;19925;-78
2023/08/05 11:38:06;;;;;;;;;;;;;;;;;;4965643;28;19922;-78
2023/08/05 11:40:55;;;;;;;;;;;;;;;;;;4964561;28;20343;-79
2023/08/05 11:43:42;;;;;;;;;;;;;;;;;;4964198;28;19918;-78
2023/08/05 11:46:29;;;;;;;;;;;;;;;;;;4968287;28;19925;-80
2023/08/05 11:49:16;;;;;;;;;;;;;;;;;;4942641;28;20409;-79
2023/08/05 11:52:04;;;;;;;;;;;;;;;;;;4956619;28;20290;-79
2023/08/05 11:54:51;;;;;;;;;;;;;;;;;;4964009;28;19922;-78
2023/08/05 11:57:37;;;;;;;;;;;;;;;;;;4962788;28;19946;-78
2023/08/05 12:00:24;;;;;;;;;;;;;;;;;;4956259;28;19930;-79
2023/08/05 12:03:10;;;;;;;;;;;;;;;;;;4960782;28;19929;-79
2023/08/05 12:05:57;;;;;;;;;;;;;;;;;;4970734;28;19926;-78
2023/08/05 12:08:43;;;;;;;;;;;;;;;;;;4963905;28;19926;-78
2023/08/05 12:11:30;;;;;;;;;;;;;;;;;;4954558;28;19922;-81
2023/08/05 12:14:16;;;;;;;;;;;;;;;;;;4972716;28;20778;-77
2023/08/05 12:17:03;;;;;;;;;;;;;;;;;;4954217;28;19921;-75
2023/08/05 12:19:49;;;;;;;;;;;;;;;;;;4969155;28;19937;-75
2023/08/05 12:22:36;;;;;;;;;;;;;;;;;;4968929;28;19932;-74
2023/08/05 12:25:22;;;;;;;;;;;;;;;;;;4967726;28;19926;-75
2023/08/05 12:28:09;;;;;;;;;;;;;;;;;;4967496;28;19922;-75
2023/08/05 12:30:55;;;;;;;;;;;;;;;;;;4935705;28;19922;-75
2023/08/05 12:33:42;;;;;;;;;;;;;;;;;;4942682;28;20419;-74
2023/08/05 12:36:28;;;;;;;;;;;;;;;;;;4957347;28;19922;-73
2023/08/05 12:39:15;;;;;;;;;;;;;;;;;;4960952;28;19937;-74
2023/08/05 12:42:01;;;;;;;;;;;;;;;;;;4954182;28;19918;-76
2023/08/05 12:44:48;;;;;;;;;;;;;;;;;;4963016;28;20479;-75
2023/08/05 12:47:34;;;;;;;;;;;;;;;;;;4963966;28;20589;-75
2023/08/05 12:50:20;;;;;;;;;;;;;;;;;;4972745;28;20298;-73
2023/08/05 12:53:07;;;;;;;;;;;;;;;;;;4968054;28;19925;-75
2023/08/05 12:55:53;;;;;;;;;;;;;;;;;;4971219;28;20325;-75
2023/08/05 12:58:40;;;;;;;;;;;;;;;;;;4969462;28;19933;-75
2023/08/05 13:01:26;;;;;;;;;;;;;;;;;;4962191;28;19919;-74
2023/08/05 13:04:13;;;;;;;;;;;;;;;;;;4946615;28;19922;-74
2023/08/05 13:06:59;;;;;;;;;;;;;;;;;;4953597;28;20396;-74
2023/08/05 13:09:46;;;;;;;;;;;;;;;;;;4945650;28;19930;-74
2023/08/05 13:12:32;;;;;;;;;;;;;;;;;;4947246;28;20385;-75
2023/08/05 13:15:19;;;;;;;;;;;;;;;;;;4948928;28;19922;-74
2023/08/05 13:18:05;;;;;;;;;;;;;;;;;;4945663;28;19923;-74
2023/08/05 13:20:52;;;;;;;;;;;;;;;;;;4962501;28;19941;-74
2023/08/05 13:23:38;;;;;;;;;;;;;;;;;;4969824;28;19948;-74
2023/08/05 13:26:25;;;;;;;;;;;;;;;;;;4942647;28;20259;-75
2023/08/05 13:29:11;;;;;;;;;;;;;;;;;;4964069;28;19926;-75
2023/08/05 13:31:58;;;;;;;;;;;;;;;;;;4942341;28;19919;-75
2023/08/05 13:34:44;;;;;;;;;;;;;;;;;;4946989;28;19929;-75
2023/08/05 13:37:31;;;;;;;;;;;;;;;;;;4942325;28;19925;-75
2023/08/05 13:40:17;;;;;;;;;;;;;;;;;;4970447;28;19930;-75
2023/08/05 13:43:04;;;;;;;;;;;;;;;;;;4964714;28;19926;-73
2023/08/05 13:45:50;;;;;;;;;;;;;;;;;;4965585;28;19933;-74
2023/08/05 13:48:38;;;;;;;;;;;;;;;;;;4966345;28;19937;-75
2023/08/05 13:51:25;;;;;;;;;;;;;;;;;;4964279;28;19918;-75
2023/08/05 13:54:11;;;;;;;;;;;;;;;;;;4950928;28;20480;-75
2023/08/05 13:56:58;;;;;;;;;;;;;;;;;;4932236;28;20318;-74
2023/08/05 13:59:44;;;;;;;;;;;;;;;;;;4958710;28;19933;-74
2023/08/05 14:02:31;;;;;;;;;;;;;;;;;;4961609;28;19926;-77
2023/08/05 14:05:17;;;;;;;;;;;;;;;;;;4967908;28;19918;-76
2023/08/05 14:08:04;;;;;;;;;;;;;;;;;;4964464;28;19945;-75
2023/08/05 14:10:50;;;;;;;;;;;;;;;;;;4954608;28;19926;-76
2023/08/05 14:13:37;;;;;;;;;;;;;;;;;;4946728;28;20500;-76
2023/08/05 14:16:23;;;;;;;;;;;;;;;;;;4945390;28;19942;-79
2023/08/05 14:19:10;;;;;;;;;;;;;;;;;;4950545;28;20124;-79
2023/08/05 14:21:56;;;;;;;;;;;;;;;;;;4944632;28;20481;-79
2023/08/05 14:24:43;;;;;;;;;;;;;;;;;;4944399;28;19919;-81
2023/08/05 14:27:29;;;;;;;;;;;;;;;;;;4970171;28;19917;-79
2023/08/05 14:30:17;;;;;;;;;;;;;;;;;;4944125;28;20359;-80
2023/08/05 14:33:03;;;;;;;;;;;;;;;;;;4949005;28;19925;-79
2023/08/05 14:35:50;;;;;;;;;;;;;;;;;;4949701;28;20374;-79
2023/08/05 14:38:36;;;;;;;;;;;;;;;;;;4952656;28;20051;-81
2023/08/05 14:41:23;;;;;;;;;;;;;;;;;;4951117;28;19965;-79
2023/08/05 14:44:10;;;;;;;;;;;;;;;;;;4958891;28;19921;-79
2023/08/05 14:46:56;;;;;;;;;;;;;;;;;;4950344;28;19980;-79
2023/08/05 14:49:43;;;;;;;;;;;;;;;;;;4939751;28;19919;-79
2023/08/05 14:52:30;;;;;;;;;;;;;;;;;;4947822;28;19925;-79
2023/08/05 14:55:17;;;;;;;;;;;;;;;;;;4946208;28;19926;-78
2023/08/05 14:58:04;;;;;;;;;;;;;;;;;;4945353;28;19936;-79
2023/08/05 15:00:51;;;;;;;;;;;;;;;;;;4953492;28;20372;-80
2023/08/05 15:03:37;;;;;;;;;;;;;;;;;;4971496;28;19930;-81
2023/08/05 15:06:26;;;;;;;;;;;;;;;;;;4956299;28;19934;-81
2023/08/05 15:09:12;;;;;;;;;;;;;;;;;;4971365;28;19922;-80
2023/08/05 15:11:59;;;;;;;;;;;;;;;;;;4969795;28;19937;-81
2023/08/05 15:14:45;;;;;;;;;;;;;;;;;;4965350;28;19929;-80
2023/08/05 15:17:32;;;;;;;;;;;;;;;;;;4964498;28;19948;-80
2023/08/05 15:20:19;;;;;;;;;;;;;;;;;;4944275;28;19937;-80
2023/08/05 15:23:05;;;;;;;;;;;;;;;;;;4944850;28;20306;-79
2023/08/05 15:25:52;;;;;;;;;;;;;;;;;;4963134;28;20037;-79
2023/08/05 15:28:38;;;;;;;;;;;;;;;;;;4973167;28;19930;-80
2023/08/05 15:31:25;;;;;;;;;;;;;;;;;;4961907;28;19924;-79
2023/08/05 15:34:11;;;;;;;;;;;;;;;;;;4963048;28;19918;-78
2023/08/05 15:36:59;;;;;;;;;;;;;;;;;;4959622;28;19941;-78
2023/08/05 15:39:46;;;;;;;;;;;;;;;;;;4962963;28;19930;-80
2023/08/05 15:42:32;;;;;;;;;;;;;;;;;;4956460;28;19925;-81
2023/08/05 15:45:19;;;;;;;;;;;;;;;;;;4964742;28;19926;-80
2023/08/05 15:48:05;;;;;;;;;;;;;;;;;;4946011;28;19926;-79
2023/08/05 15:50:52;;;;;;;;;;;;;;;;;;4938436;28;19925;-76
2023/08/05 15:53:38;;;;;;;;;;;;;;;;;;4947337;28;19923;-76
2023/08/05 15:56:25;;;;;;;;;;;;;;;;;;4969638;28;19934;-77
2023/08/05 15:59:11;;;;;;;;;;;;;;;;;;4968736;28;20344;-76
2023/08/05 16:01:57;;;;;;;;;;;;;;;;;;4955177;28;19919;-76
2023/08/05 16:04:44;;;;;;;;;;;;;;;;;;4959975;28;19926;-76
2023/08/05 16:07:30;;;;;;;;;;;;;;;;;;4958589;28;19933;-75
2023/08/05 16:10:17;;;;;;;;;;;;;;;;;;4969561;28;19918;-74
2023/08/05 16:13:03;;;;;;;;;;;;;;;;;;4948257;28;20438;-75
2023/08/05 16:15:50;;;;;;;;;;;;;;;;;;4948065;28;19923;-75
2023/08/05 16:18:37;;;;;;;;;;;;;;;;;;4945738;28;19932;-76
2023/08/05 16:21:23;;;;;;;;;;;;;;;;;;4950257;28;19933;-76
2023/08/05 16:24:10;;;;;;;;;;;;;;;;;;4952991;28;20467;-77
2023/08/05 16:26:56;;;;;;;;;;;;;;;;;;4949391;28;19922;-76
2023/08/05 16:29:42;;;;;;;;;;;;;;;;;;4946602;28;19925;-76
2023/08/05 16:32:29;;;;;;;;;;;;;;;;;;4939130;28;19923;-81
2023/08/05 16:35:16;;;;;;;;;;;;;;;;;;4944490;28;19930;-76
2023/08/05 16:38:02;;;;;;;;;;;;;;;;;;4932792;28;20581;-78
2023/08/05 16:40:49;;;;;;;;;;;;;;;;;;4937100;28;19933;-76
2023/08/05 16:43:35;;;;;;;;;;;;;;;;;;4940011;28;20611;-77
2023/08/05 16:46:22;;;;;;;;;;;;;;;;;;4946545;28;19926;-78
2023/08/05 16:49:10;;;;;;;;;;;;;;;;;;4960836;28;19949;-77
2023/08/05 16:51:56;;;;;;;;;;;;;;;;;;4965083;28;19929;-76
2023/08/05 16:54:44;;;;;;;;;;;;;;;;;;4961132;28;19918;-78
2023/08/05 16:57:31;;;;;;;;;;;;;;;;;;4966543;28;19961;-78
2023/08/05 17:00:17;;;;;;;;;;;;;;;;;;4964793;28;20661;-78
2023/08/05 17:03:04;;;;;;;;;;;;;;;;;;4943040;28;19922;-77
2023/08/05 17:05:51;;;;;;;;;;;;;;;;;;4941104;28;19938;-77
2023/08/05 17:08:38;;;;;;;;;;;;;;;;;;4943156;28;20290;-77
2023/08/05 17:11:25;;;;;;;;;;;;;;;;;;4938240;28;20379;-77
2023/08/05 17:14:12;;;;;;;;;;;;;;;;;;4943951;28;19919;-77
2023/08/05 17:16:58;;;;;;;;;;;;;;;;;;4946082;28;19965;-77
2023/08/05 17:19:44;;;;;;;;;;;;;;;;;;4944630;28;19938;-77
2023/08/05 17:22:31;;;;;;;;;;;;;;;;;;4943776;28;19923;-76
2023/08/05 17:25:17;;;;;;;;;;;;;;;;;;4944987;28;20295;-79
2023/08/05 17:28:04;;;;;;;;;;;;;;;;;;4943404;28;19995;-77
2023/08/05 17:30:50;;;;;;;;;;;;;;;;;;4931506;28;19926;-77
2023/08/05 17:33:37;;;;;;;;;;;;;;;;;;4944376;28;20383;-77
2023/08/05 17:36:23;;;;;;;;;;;;;;;;;;4942733;28;19923;-77
2023/08/05 17:39:10;;;;;;;;;;;;;;;;;;4939806;28;19922;-78
2023/08/05 17:41:56;;;;;;;;;;;;;;;;;;4966244;28;19933;-77
2023/08/05 17:44:43;;;;;;;;;;;;;;;;;;4935943;28;19925;-78
2023/08/05 17:47:29;;;;;;;;;;;;;;;;;;4952354;28;20393;-78
2023/08/05 17:50:16;;;;;;;;;;;;;;;;;;4971409;28;19922;-78
2023/08/05 17:53:02;;;;;;;;;;;;;;;;;;4947500;28;19925;-79
2023/08/05 17:55:49;;;;;;;;;;;;;;;;;;4948588;28;20413;-79
2023/08/05 17:58:36;;;;;;;;;;;;;;;;;;4960707;28;20565;-78
2023/08/05 18:01:22;;;;;;;;;;;;;;;;;;4972049;28;19937;-78
2023/08/05 18:04:10;;;;;;;;;;;;;;;;;;4961065;28;19930;-77
2023/08/05 18:06:56;;;;;;;;;;;;;;;;;;4963912;28;20456;-78
2023/08/05 18:09:43;;;;;;;;;;;;;;;;;;4960004;28;20385;-78
2023/08/05 18:12:30;;;;;;;;;;;;;;;;;;4961664;28;19922;-77
2023/08/05 18:15:17;;;;;;;;;;;;;;;;;;4943277;28;20456;-76
2023/08/05 18:18:04;;;;;;;;;;;;;;;;;;4954590;28;19922;-78
2023/08/05 18:20:51;;;;;;;;;;;;;;;;;;4962201;28;19960;-79
2023/08/05 18:23:37;;;;;;;;;;;;;;;;;;4967631;28;19926;-77
2023/08/05 18:26:24;;;;;;;;;;;;;;;;;;4978569;28;19922;-78
2023/08/05 18:29:16;;;;;;;;;;;;;;;;;;4965941;28;19929;-77
2023/08/05 18:32:02;;;;;;;;;;;;;;;;;;4970966;28;19922;-76
2023/08/05 18:34:50;;;;;;;;;;;;;;;;;;4973160;28;19931;-75
2023/08/05 18:37:36;;;;;;;;;;;;;;;;;;4962456;28;19942;-74
2023/08/05 18:40:23;;;;;;;;;;;;;;;;;;4962741;28;19926;-76
2023/08/05 18:43:09;;;;;;;;;;;;;;;;;;4967535;28;19922;-76
2023/08/05 18:45:56;;;;;;;;;;;;;;;;;;4968286;28;19929;-78
2023/08/05 18:48:42;;;;;;;;;;;;;;;;;;4963980;28;19929;-78
2023/08/05 18:51:29;;;;;;;;;;;;;;;;;;4960311;28;19929;-77
2023/08/05 18:54:15;;;;;;;;;;;;;;;;;;4970085;28;19929;-76
2023/08/05 18:57:02;;;;;;;;;;;;;;;;;;4970052;28;19941;-78